DLH630 EDDF-OMDB
Flight info
| Callsign | DLH630 |
|---|---|
| Flight time | N/A |
| Altitude | 37000 |
| Route | CINDY8S CINDY Z74 LAMPU DCT NOMBO Y161 MAH DCT LATLO/N0468F390 DCT OBEDI DCT BABOL DCT NISVA DCT USALI DCT OTKOK DCT RODIP DCT BELGI DCT KETEK UT38 VESAR L620 BALMA UR655 LEBOR R655 KTN R785 RASLI P559 TRF R23 NEVOL N318 TAMRO T503 KSA M321 RESAL T533 RAPMA DCT KUVSO DCT KATIT DCT PEKEM M628 RIGIL G783 ELUDA/N0489F350 G783 ASPED Q308 KIPOK/N0490F340 Q568 IMPED |
| Aircraft | A333/H-SDE3GHIJ2J3J5M1RVWXY/LB2D1 |
Departure
| Time | 2026-05-06 10:53 |
|---|---|
| Airport | Frankfurt Main Airport (EDDF) |
Arrival
| Time | N/A |
|---|---|
| Airport | Dubai International Airport (OMDB) |
| Time | Latitude | Longitude | Altitude | Speed | Heading |
|---|---|---|---|---|---|
| 2026-05-06 10:08 | 50.04595 | 8.57053 | 361 ft | 0 kts | 59° |
| 2026-05-06 10:19 | 50.04595 | 8.57052 | 361 ft | 0 kts | 59° |
| 2026-05-06 10:31 | 50.04594 | 8.57051 | 361 ft | 0 kts | 59° |
| 2026-05-06 10:34 | 50.04589 | 8.57038 | 361 ft | 4 kts | 58° |
| 2026-05-06 10:34 | 50.04575 | 8.57003 | 369 ft | 4 kts | 63° |
| 2026-05-06 10:35 | 50.04567 | 8.56965 | 364 ft | 4 kts | 96° |
| 2026-05-06 10:35 | 50.04572 | 8.56930 | 368 ft | 4 kts | 122° |
| 2026-05-06 10:35 | 50.04590 | 8.56908 | 365 ft | 4 kts | 179° |
| 2026-05-06 10:35 | 50.04615 | 8.56914 | 363 ft | 4 kts | 194° |
| 2026-05-06 10:36 | 50.04641 | 8.56926 | 366 ft | 4 kts | 201° |
| 2026-05-06 10:36 | 50.04655 | 8.56935 | 364 ft | 3 kts | 203° |
| 2026-05-06 10:39 | 50.04650 | 8.56932 | 360 ft | 3 kts | 202° |
| 2026-05-06 10:39 | 50.04610 | 8.56913 | 365 ft | 7 kts | 193° |
| 2026-05-06 10:39 | 50.04568 | 8.56897 | 368 ft | 4 kts | 193° |
| 2026-05-06 10:39 | 50.04549 | 8.56891 | 368 ft | 4 kts | 193° |
| 2026-05-06 10:40 | 50.04503 | 8.56873 | 365 ft | 9 kts | 195° |
| 2026-05-06 10:40 | 50.04446 | 8.56804 | 370 ft | 13 kts | 247° |
| 2026-05-06 10:40 | 50.04413 | 8.56665 | 363 ft | 15 kts | 250° |
| 2026-05-06 10:40 | 50.04369 | 8.56493 | 367 ft | 19 kts | 252° |
| 2026-05-06 10:41 | 50.04326 | 8.56298 | 365 ft | 19 kts | 250° |
| 2026-05-06 10:41 | 50.04277 | 8.56095 | 365 ft | 20 kts | 249° |
| 2026-05-06 10:41 | 50.04226 | 8.55884 | 360 ft | 21 kts | 249° |
| 2026-05-06 10:41 | 50.04172 | 8.55662 | 360 ft | 22 kts | 249° |
| 2026-05-06 10:42 | 50.04119 | 8.55436 | 362 ft | 20 kts | 250° |
| 2026-05-06 10:42 | 50.04071 | 8.55232 | 364 ft | 20 kts | 250° |
| 2026-05-06 10:42 | 50.04023 | 8.55027 | 365 ft | 20 kts | 249° |
| 2026-05-06 10:42 | 50.03973 | 8.54821 | 364 ft | 20 kts | 251° |
| 2026-05-06 10:43 | 50.03922 | 8.54612 | 360 ft | 21 kts | 249° |
| 2026-05-06 10:43 | 50.03872 | 8.54406 | 357 ft | 18 kts | 245° |
| 2026-05-06 10:43 | 50.03805 | 8.54236 | 359 ft | 19 kts | 246° |
| 2026-05-06 10:44 | 50.03707 | 8.53836 | 355 ft | 20 kts | 250° |
| 2026-05-06 10:44 | 50.03661 | 8.53643 | 355 ft | 19 kts | 249° |
| 2026-05-06 10:44 | 50.03611 | 8.53447 | 355 ft | 20 kts | 249° |
| 2026-05-06 10:44 | 50.03563 | 8.53240 | 352 ft | 21 kts | 250° |
| 2026-05-06 10:45 | 50.03515 | 8.53044 | 353 ft | 19 kts | 249° |
| 2026-05-06 10:45 | 50.03469 | 8.52863 | 336 ft | 12 kts | 246° |
| 2026-05-06 10:45 | 50.03455 | 8.52812 | 336 ft | 0 kts | 248° |
| 2026-05-06 10:50 | 50.03453 | 8.52803 | 337 ft | 2 kts | 248° |
| 2026-05-06 10:50 | 50.03444 | 8.52771 | 336 ft | 5 kts | 248° |
| 2026-05-06 10:50 | 50.03429 | 8.52710 | 334 ft | 8 kts | 248° |
| 2026-05-06 10:51 | 50.03404 | 8.52624 | 334 ft | 9 kts | 235° |
| 2026-05-06 10:51 | 50.03362 | 8.52593 | 336 ft | 0 kts | 181° |
| 2026-05-06 10:51 | 50.03351 | 8.52593 | 336 ft | 5 kts | 180° |
| 2026-05-06 10:51 | 50.03192 | 8.52595 | 337 ft | 49 kts | 179° |
| 2026-05-06 10:52 | 50.02667 | 8.52602 | 335 ft | 101 kts | 180° |
| 2026-05-06 10:52 | 50.01806 | 8.52610 | 335 ft | 145 kts | 180° |
| 2026-05-06 10:52 | 50.00688 | 8.52627 | 539 ft | 173 kts | 181° |
| 2026-05-06 10:52 | 49.99375 | 8.52694 | 740 ft | 205 kts | 178° |
| 2026-05-06 10:53 | 49.97834 | 8.52761 | 940 ft | 238 kts | 175° |
| 2026-05-06 10:53 | 49.96213 | 8.53755 | 1148 ft | 271 kts | 142° |
| 2026-05-06 10:53 | 49.95058 | 8.56144 | 1708 ft | 282 kts | 121° |
| 2026-05-06 10:53 | 49.94229 | 8.58890 | 2546 ft | 279 kts | 110° |
| 2026-05-06 10:54 | 49.93900 | 8.61840 | 3501 ft | 278 kts | 96° |
| 2026-05-06 10:54 | 49.93828 | 8.63824 | 4075 ft | 278 kts | 94° |
| 2026-05-06 10:54 | 49.93726 | 8.66817 | 4932 ft | 277 kts | 98° |
| 2026-05-06 10:54 | 49.93141 | 8.69627 | 5684 ft | 274 kts | 126° |
| 2026-05-06 10:55 | 49.91826 | 8.71735 | 6396 ft | 273 kts | 144° |
| 2026-05-06 10:55 | 49.90291 | 8.73477 | 7108 ft | 275 kts | 148° |
| 2026-05-06 10:55 | 49.88774 | 8.75322 | 7819 ft | 281 kts | 137° |
| 2026-05-06 10:55 | 49.87595 | 8.77776 | 8585 ft | 287 kts | 124° |
| 2026-05-06 10:56 | 49.86594 | 8.80469 | 9357 ft | 290 kts | 122° |
| 2026-05-06 10:56 | 49.85613 | 8.83217 | 10025 ft | 295 kts | 122° |
| 2026-05-06 10:56 | 49.84587 | 8.86079 | 10334 ft | 313 kts | 122° |
| 2026-05-06 10:56 | 49.83494 | 8.89101 | 10608 ft | 330 kts | 122° |
| 2026-05-06 10:57 | 49.82339 | 8.92286 | 10870 ft | 348 kts | 122° |
| 2026-05-06 10:57 | 49.81126 | 8.95624 | 11130 ft | 364 kts | 122° |
| 2026-05-06 10:57 | 49.79861 | 8.99102 | 11491 ft | 376 kts | 122° |
| 2026-05-06 10:57 | 49.78570 | 9.02658 | 12059 ft | 381 kts | 122° |
| 2026-05-06 10:58 | 49.77262 | 9.06254 | 12701 ft | 385 kts | 122° |
| 2026-05-06 10:58 | 49.76132 | 9.10028 | 13424 ft | 390 kts | 112° |
| 2026-05-06 10:58 | 49.75374 | 9.14081 | 14002 ft | 395 kts | 108° |
| 2026-05-06 10:58 | 49.74508 | 9.18100 | 14546 ft | 394 kts | 118° |
| 2026-05-06 10:59 | 49.73087 | 9.21717 | 15127 ft | 393 kts | 128° |
| 2026-05-06 10:59 | 49.71412 | 9.25062 | 15681 ft | 395 kts | 133° |
| 2026-05-06 10:59 | 49.69602 | 9.28275 | 16259 ft | 397 kts | 135° |
| 2026-05-06 10:59 | 49.67734 | 9.31435 | 16800 ft | 400 kts | 135° |
| 2026-05-06 11:00 | 49.65841 | 9.34610 | 17351 ft | 403 kts | 135° |
| 2026-05-06 11:00 | 49.63944 | 9.37818 | 17862 ft | 406 kts | 135° |
| 2026-05-06 11:00 | 49.61893 | 9.40817 | 18338 ft | 407 kts | 144° |
| 2026-05-06 11:00 | 49.59603 | 9.43378 | 18756 ft | 409 kts | 148° |
| 2026-05-06 11:01 | 49.57215 | 9.45778 | 19207 ft | 411 kts | 150° |
| 2026-05-06 11:01 | 49.54775 | 9.48064 | 19717 ft | 411 kts | 152° |
| 2026-05-06 11:01 | 49.52300 | 9.50302 | 20147 ft | 413 kts | 152° |
| 2026-05-06 11:01 | 49.49805 | 9.52531 | 20544 ft | 416 kts | 152° |
| 2026-05-06 11:02 | 49.47294 | 9.54775 | 20969 ft | 419 kts | 152° |
| 2026-05-06 11:02 | 49.44766 | 9.57044 | 21394 ft | 422 kts | 152° |
| 2026-05-06 11:02 | 49.42229 | 9.59331 | 21807 ft | 425 kts | 152° |
| 2026-05-06 11:02 | 49.39675 | 9.61642 | 22219 ft | 427 kts | 152° |
| 2026-05-06 11:03 | 49.37110 | 9.63967 | 22640 ft | 430 kts | 152° |
| 2026-05-06 11:03 | 49.34598 | 9.66521 | 23036 ft | 435 kts | 146° |
| 2026-05-06 11:03 | 49.32288 | 9.69535 | 23568 ft | 436 kts | 141° |
| 2026-05-06 11:03 | 49.30076 | 9.72705 | 24065 ft | 435 kts | 139° |
| 2026-05-06 11:04 | 49.27905 | 9.75961 | 24418 ft | 438 kts | 139° |
| 2026-05-06 11:04 | 49.25755 | 9.79275 | 24764 ft | 440 kts | 138° |
| 2026-05-06 11:04 | 49.23598 | 9.82623 | 25069 ft | 443 kts | 139° |
| 2026-05-06 11:04 | 49.21423 | 9.85987 | 25407 ft | 446 kts | 139° |
| 2026-05-06 11:05 | 49.19233 | 9.89345 | 25774 ft | 447 kts | 140° |
| 2026-05-06 11:05 | 49.17027 | 9.92705 | 26136 ft | 448 kts | 140° |
| 2026-05-06 11:05 | 49.14814 | 9.96060 | 26491 ft | 449 kts | 140° |
| 2026-05-06 11:05 | 49.12590 | 9.99423 | 26845 ft | 451 kts | 140° |
| 2026-05-06 11:06 | 49.10355 | 10.02802 | 27196 ft | 452 kts | 140° |
| 2026-05-06 11:06 | 49.08116 | 10.06174 | 27527 ft | 454 kts | 141° |
| 2026-05-06 11:06 | 49.05859 | 10.09542 | 27929 ft | 453 kts | 141° |
| 2026-05-06 11:06 | 49.03599 | 10.12809 | 28256 ft | 454 kts | 142° |
| 2026-05-06 11:07 | 49.01281 | 10.16088 | 28557 ft | 456 kts | 143° |
| 2026-05-06 11:07 | 48.98935 | 10.19374 | 28732 ft | 460 kts | 143° |
| 2026-05-06 11:07 | 48.96573 | 10.22674 | 29077 ft | 461 kts | 143° |
| 2026-05-06 11:07 | 48.94221 | 10.25973 | 29593 ft | 459 kts | 143° |
| 2026-05-06 11:08 | 48.91885 | 10.29259 | 30046 ft | 457 kts | 143° |
| 2026-05-06 11:08 | 48.89552 | 10.32546 | 30358 ft | 457 kts | 143° |
| 2026-05-06 11:08 | 48.87218 | 10.35831 | 30633 ft | 458 kts | 143° |
| 2026-05-06 11:08 | 48.84880 | 10.39119 | 30961 ft | 459 kts | 144° |
| 2026-05-06 11:09 | 48.82555 | 10.42435 | 31271 ft | 460 kts | 142° |
| 2026-05-06 11:09 | 48.80292 | 10.45890 | 31545 ft | 462 kts | 141° |
| 2026-05-06 11:09 | 48.78090 | 10.49399 | 31852 ft | 463 kts | 140° |
| 2026-05-06 11:09 | 48.75904 | 10.52948 | 32148 ft | 464 kts | 140° |
| 2026-05-06 11:10 | 48.73697 | 10.56537 | 32318 ft | 467 kts | 140° |
| 2026-05-06 11:10 | 48.71477 | 10.60133 | 32610 ft | 467 kts | 140° |
| 2026-05-06 11:10 | 48.69261 | 10.63710 | 32929 ft | 466 kts | 140° |
| 2026-05-06 11:10 | 48.67041 | 10.67275 | 33288 ft | 465 kts | 140° |
| 2026-05-06 11:11 | 48.64818 | 10.70821 | 33609 ft | 464 kts | 141° |
| 2026-05-06 11:11 | 48.62591 | 10.74355 | 33908 ft | 464 kts | 141° |
| 2026-05-06 11:11 | 48.60364 | 10.77878 | 34157 ft | 464 kts | 141° |
| 2026-05-06 11:11 | 48.58136 | 10.81402 | 34389 ft | 463 kts | 140° |
| 2026-05-06 11:12 | 48.55921 | 10.84928 | 34657 ft | 462 kts | 140° |
| 2026-05-06 11:12 | 48.53719 | 10.88452 | 34913 ft | 461 kts | 140° |
| 2026-05-06 11:12 | 48.51523 | 10.91978 | 35144 ft | 461 kts | 140° |
| 2026-05-06 11:12 | 48.49326 | 10.95485 | 35346 ft | 460 kts | 140° |
| 2026-05-06 11:13 | 48.47111 | 10.98974 | 35573 ft | 460 kts | 140° |
| 2026-05-06 11:13 | 48.44886 | 11.02448 | 35786 ft | 460 kts | 140° |
| 2026-05-06 11:13 | 48.42662 | 11.05906 | 36002 ft | 460 kts | 140° |
| 2026-05-06 11:13 | 48.40437 | 11.09358 | 36204 ft | 460 kts | 140° |
| 2026-05-06 11:14 | 48.38213 | 11.12805 | 36390 ft | 460 kts | 140° |
| 2026-05-06 11:14 | 48.35983 | 11.16259 | 36590 ft | 460 kts | 140° |
| 2026-05-06 11:14 | 48.33750 | 11.19718 | 36779 ft | 461 kts | 140° |
| 2026-05-06 11:15 | 48.29310 | 11.26587 | 36804 ft | 461 kts | 140° |
| 2026-05-06 11:15 | 48.25294 | 11.34171 | 36806 ft | 470 kts | 128° |
| 2026-05-06 11:16 | 48.21929 | 11.42624 | 36802 ft | 473 kts | 126° |
| 2026-05-06 11:16 | 48.18700 | 11.51214 | 36803 ft | 473 kts | 125° |
| 2026-05-06 11:17 | 48.15472 | 11.59811 | 36773 ft | 473 kts | 125° |
| 2026-05-06 11:17 | 48.12219 | 11.68377 | 36792 ft | 473 kts | 126° |
| 2026-05-06 11:18 | 48.08948 | 11.76922 | 36792 ft | 473 kts | 126° |
| 2026-05-06 11:18 | 48.05667 | 11.85458 | 36791 ft | 473 kts | 126° |
| 2026-05-06 11:19 | 48.02383 | 11.93977 | 36775 ft | 473 kts | 126° |
| 2026-05-06 11:19 | 47.99107 | 12.02449 | 36785 ft | 476 kts | 126° |
| 2026-05-06 11:20 | 47.95777 | 12.11032 | 36782 ft | 478 kts | 126° |
| 2026-05-06 11:20 | 47.92442 | 12.19606 | 36775 ft | 478 kts | 126° |
| 2026-05-06 11:21 | 47.89099 | 12.28174 | 36772 ft | 478 kts | 126° |
| 2026-05-06 11:21 | 47.85754 | 12.36719 | 36774 ft | 478 kts | 126° |
| 2026-05-06 11:22 | 47.82400 | 12.45257 | 36785 ft | 478 kts | 126° |
| 2026-05-06 11:22 | 47.79039 | 12.53786 | 36766 ft | 478 kts | 126° |
| 2026-05-06 11:23 | 47.75667 | 12.62297 | 36760 ft | 477 kts | 126° |
| 2026-05-06 11:23 | 47.72289 | 12.70807 | 36754 ft | 478 kts | 127° |
| 2026-05-06 11:24 | 47.68816 | 12.79195 | 36772 ft | 473 kts | 133° |
| 2026-05-06 11:24 | 47.64514 | 12.86434 | 36781 ft | 466 kts | 141° |
| 2026-05-06 11:25 | 47.59966 | 12.93238 | 36777 ft | 464 kts | 142° |
| 2026-05-06 11:25 | 47.55364 | 12.99954 | 36768 ft | 464 kts | 142° |
| 2026-05-06 11:26 | 47.50769 | 13.06665 | 36760 ft | 465 kts | 142° |
| 2026-05-06 11:26 | 47.46169 | 13.13405 | 36797 ft | 465 kts | 142° |
| 2026-05-06 11:27 | 47.41580 | 13.20126 | 36791 ft | 464 kts | 142° |
| 2026-05-06 11:27 | 47.36993 | 13.26827 | 36806 ft | 464 kts | 142° |
| 2026-05-06 11:28 | 47.32579 | 13.33827 | 36825 ft | 472 kts | 133° |
| 2026-05-06 11:28 | 47.28830 | 13.41833 | 36845 ft | 478 kts | 130° |
| 2026-05-06 11:29 | 47.25215 | 13.50081 | 36853 ft | 480 kts | 129° |
| 2026-05-06 11:29 | 47.21612 | 13.58359 | 36876 ft | 481 kts | 129° |
| 2026-05-06 11:30 | 47.17981 | 13.66613 | 36858 ft | 481 kts | 128° |
| 2026-05-06 11:30 | 47.14346 | 13.74830 | 36873 ft | 484 kts | 129° |
| 2026-05-06 11:31 | 47.10663 | 13.83120 | 36900 ft | 485 kts | 129° |
| 2026-05-06 11:31 | 47.06972 | 13.91404 | 36885 ft | 485 kts | 129° |
| 2026-05-06 11:32 | 47.03276 | 13.99674 | 36890 ft | 485 kts | 129° |
| 2026-05-06 11:32 | 46.99572 | 14.07937 | 36874 ft | 485 kts | 129° |
| 2026-05-06 11:33 | 46.95861 | 14.16188 | 36913 ft | 486 kts | 129° |
| 2026-05-06 11:33 | 46.92134 | 14.24449 | 36906 ft | 487 kts | 129° |
| 2026-05-06 11:34 | 46.88400 | 14.32704 | 36908 ft | 487 kts | 129° |
| 2026-05-06 11:34 | 46.84656 | 14.40958 | 36910 ft | 487 kts | 129° |
| 2026-05-06 11:35 | 46.80904 | 14.49202 | 36908 ft | 487 kts | 129° |
| 2026-05-06 11:35 | 46.77152 | 14.57424 | 36915 ft | 487 kts | 129° |
| 2026-05-06 11:36 | 46.73399 | 14.65625 | 36912 ft | 486 kts | 129° |
| 2026-05-06 11:36 | 46.69635 | 14.73820 | 36911 ft | 486 kts | 129° |
| 2026-05-06 11:37 | 46.65861 | 14.82012 | 36917 ft | 488 kts | 129° |
| 2026-05-06 11:37 | 46.62077 | 14.90204 | 36915 ft | 487 kts | 129° |
| 2026-05-06 11:38 | 46.58298 | 14.98367 | 36915 ft | 486 kts | 129° |
| 2026-05-06 11:38 | 46.54513 | 15.06514 | 36928 ft | 487 kts | 129° |
| 2026-05-06 11:39 | 46.50714 | 15.14664 | 36921 ft | 488 kts | 129° |
| 2026-05-06 11:39 | 46.47549 | 15.21437 | 36924 ft | 488 kts | 129° |
| 2026-05-06 11:40 | 46.43732 | 15.29586 | 36920 ft | 488 kts | 129° |
| 2026-05-06 11:40 | 46.39913 | 15.37720 | 36934 ft | 488 kts | 129° |
| 2026-05-06 11:41 | 46.36085 | 15.45844 | 36930 ft | 489 kts | 129° |
| 2026-05-06 11:41 | 46.32244 | 15.53971 | 36930 ft | 489 kts | 129° |
| 2026-05-06 11:42 | 46.28397 | 15.62088 | 36932 ft | 490 kts | 129° |
| 2026-05-06 11:42 | 46.24545 | 15.70196 | 36936 ft | 490 kts | 129° |
| 2026-05-06 11:43 | 46.20684 | 15.78297 | 36936 ft | 489 kts | 129° |
| 2026-05-06 11:43 | 46.16817 | 15.86387 | 36945 ft | 489 kts | 129° |
| 2026-05-06 11:44 | 46.11038 | 15.98432 | 36938 ft | 489 kts | 129° |
| 2026-05-06 11:44 | 46.07159 | 16.06488 | 36932 ft | 489 kts | 129° |
| 2026-05-06 11:45 | 46.03279 | 16.14525 | 36944 ft | 488 kts | 129° |
| 2026-05-06 11:45 | 45.99413 | 16.22510 | 36943 ft | 486 kts | 129° |
| 2026-05-06 11:46 | 45.95551 | 16.30465 | 36942 ft | 485 kts | 129° |
| 2026-05-06 11:46 | 45.91683 | 16.38405 | 36940 ft | 485 kts | 129° |
| 2026-05-06 11:47 | 45.87809 | 16.46337 | 36931 ft | 485 kts | 129° |
| 2026-05-06 11:47 | 45.83936 | 16.54246 | 36934 ft | 484 kts | 129° |
| 2026-05-06 11:48 | 45.80056 | 16.62146 | 36947 ft | 484 kts | 129° |
| 2026-05-06 11:48 | 45.76172 | 16.70035 | 36946 ft | 484 kts | 130° |
| 2026-05-06 11:49 | 45.72286 | 16.77903 | 36930 ft | 484 kts | 130° |
| 2026-05-06 11:49 | 45.68403 | 16.85744 | 36929 ft | 482 kts | 130° |
| 2026-05-06 11:50 | 45.64519 | 16.93567 | 36930 ft | 482 kts | 130° |
| 2026-05-06 11:50 | 45.60632 | 17.01371 | 36932 ft | 482 kts | 130° |
| 2026-05-06 11:51 | 45.56740 | 17.09166 | 36922 ft | 482 kts | 130° |
| 2026-05-06 11:51 | 45.52837 | 17.16959 | 36925 ft | 482 kts | 130° |
| 2026-05-06 11:52 | 45.48934 | 17.24733 | 36924 ft | 482 kts | 130° |
| 2026-05-06 11:52 | 45.45023 | 17.32503 | 36925 ft | 482 kts | 130° |
| 2026-05-06 11:53 | 45.41101 | 17.40269 | 36925 ft | 484 kts | 130° |
| 2026-05-06 11:53 | 45.37164 | 17.48047 | 36926 ft | 485 kts | 130° |
| 2026-05-06 11:54 | 45.33222 | 17.55815 | 36925 ft | 485 kts | 130° |
| 2026-05-06 11:54 | 45.29270 | 17.63582 | 36932 ft | 485 kts | 130° |
| 2026-05-06 11:55 | 45.25313 | 17.71334 | 36923 ft | 485 kts | 130° |
| 2026-05-06 11:55 | 45.21346 | 17.79086 | 36925 ft | 485 kts | 130° |
| 2026-05-06 11:56 | 45.17376 | 17.86823 | 36929 ft | 485 kts | 130° |
| 2026-05-06 11:56 | 45.13399 | 17.94552 | 36908 ft | 485 kts | 130° |
| 2026-05-06 11:57 | 45.09415 | 18.02275 | 36925 ft | 486 kts | 130° |
| 2026-05-06 11:57 | 45.05450 | 18.09940 | 36928 ft | 486 kts | 130° |
| 2026-05-06 11:58 | 45.01454 | 18.17643 | 36929 ft | 486 kts | 130° |
| 2026-05-06 11:58 | 44.97451 | 18.25340 | 36922 ft | 486 kts | 130° |
| 2026-05-06 11:59 | 44.93441 | 18.33029 | 36931 ft | 486 kts | 130° |
| 2026-05-06 11:59 | 44.89426 | 18.40707 | 36930 ft | 486 kts | 130° |
| 2026-05-06 12:00 | 44.85407 | 18.48373 | 36939 ft | 486 kts | 130° |
| 2026-05-06 12:00 | 44.81388 | 18.56020 | 36932 ft | 486 kts | 130° |
| 2026-05-06 12:01 | 44.77526 | 18.63861 | 36943 ft | 490 kts | 124° |
| 2026-05-06 12:01 | 44.74077 | 18.72143 | 36942 ft | 491 kts | 122° |
| 2026-05-06 12:02 | 44.70705 | 18.80502 | 36935 ft | 491 kts | 122° |
| 2026-05-06 12:02 | 44.67339 | 18.88858 | 36937 ft | 491 kts | 122° |
| 2026-05-06 12:03 | 44.63957 | 18.97197 | 36938 ft | 491 kts | 122° |
| 2026-05-06 12:03 | 44.60565 | 19.05515 | 36941 ft | 491 kts | 123° |
| 2026-05-06 12:04 | 44.57163 | 19.13827 | 36939 ft | 491 kts | 123° |
| 2026-05-06 12:04 | 44.53754 | 19.22130 | 36939 ft | 492 kts | 123° |
| 2026-05-06 12:05 | 44.50328 | 19.30454 | 36939 ft | 492 kts | 122° |
| 2026-05-06 12:05 | 44.46908 | 19.38744 | 36941 ft | 491 kts | 122° |
| 2026-05-06 12:06 | 44.43487 | 19.47011 | 36947 ft | 491 kts | 123° |
| 2026-05-06 12:06 | 44.40052 | 19.55282 | 36955 ft | 493 kts | 123° |
| 2026-05-06 12:07 | 44.36624 | 19.63512 | 36953 ft | 493 kts | 123° |
| 2026-05-06 12:07 | 44.33167 | 19.71790 | 36954 ft | 493 kts | 123° |
| 2026-05-06 12:08 | 44.29703 | 19.80061 | 36950 ft | 493 kts | 122° |
| 2026-05-06 12:08 | 44.26233 | 19.88323 | 36953 ft | 494 kts | 122° |
| 2026-05-06 12:09 | 44.22755 | 19.96579 | 36961 ft | 494 kts | 122° |
| 2026-05-06 12:09 | 44.19274 | 20.04821 | 36963 ft | 494 kts | 123° |
| 2026-05-06 12:10 | 44.15781 | 20.13062 | 36959 ft | 494 kts | 122° |
| 2026-05-06 12:10 | 44.12281 | 20.21301 | 36967 ft | 494 kts | 122° |
| 2026-05-06 12:11 | 44.08775 | 20.29528 | 36961 ft | 494 kts | 122° |
| 2026-05-06 12:11 | 44.05268 | 20.37735 | 36965 ft | 494 kts | 123° |
| 2026-05-06 12:12 | 44.01750 | 20.45943 | 36965 ft | 495 kts | 122° |
| 2026-05-06 12:12 | 43.98221 | 20.54152 | 36968 ft | 495 kts | 122° |
| 2026-05-06 12:13 | 43.94687 | 20.62353 | 36968 ft | 495 kts | 122° |
| 2026-05-06 12:13 | 43.91148 | 20.70542 | 36969 ft | 495 kts | 122° |
| 2026-05-06 12:14 | 43.87600 | 20.78724 | 36971 ft | 495 kts | 122° |
| 2026-05-06 12:14 | 43.84070 | 20.86846 | 36973 ft | 495 kts | 122° |
| 2026-05-06 12:15 | 43.80489 | 20.95061 | 36965 ft | 495 kts | 123° |
| 2026-05-06 12:15 | 43.76953 | 21.03149 | 36967 ft | 495 kts | 122° |
| 2026-05-06 12:16 | 43.73383 | 21.11292 | 36970 ft | 495 kts | 122° |
| 2026-05-06 12:16 | 43.69805 | 21.19430 | 36989 ft | 495 kts | 122° |
| 2026-05-06 12:17 | 43.66222 | 21.27555 | 36991 ft | 495 kts | 122° |
| 2026-05-06 12:17 | 43.62634 | 21.35673 | 36969 ft | 496 kts | 122° |
| 2026-05-06 12:18 | 43.59034 | 21.43794 | 36973 ft | 496 kts | 122° |
| 2026-05-06 12:18 | 43.55429 | 21.51901 | 36996 ft | 496 kts | 122° |
| 2026-05-06 12:19 | 43.51819 | 21.59999 | 36982 ft | 496 kts | 122° |
| 2026-05-06 12:19 | 43.48199 | 21.68096 | 36999 ft | 496 kts | 122° |
| 2026-05-06 12:20 | 43.44574 | 21.76182 | 36996 ft | 496 kts | 122° |
| 2026-05-06 12:20 | 43.40944 | 21.84256 | 36999 ft | 496 kts | 122° |
| 2026-05-06 12:21 | 43.37310 | 21.92318 | 36996 ft | 496 kts | 122° |
| 2026-05-06 12:21 | 43.33667 | 22.00378 | 36998 ft | 496 kts | 122° |
| 2026-05-06 12:22 | 43.30020 | 22.08423 | 36991 ft | 496 kts | 122° |
| 2026-05-06 12:22 | 43.26369 | 22.16457 | 36992 ft | 496 kts | 122° |
| 2026-05-06 12:23 | 43.22708 | 22.24488 | 36985 ft | 497 kts | 122° |
| 2026-05-06 12:23 | 43.19040 | 22.32513 | 37001 ft | 497 kts | 122° |
| 2026-05-06 12:24 | 43.15367 | 22.40529 | 37006 ft | 496 kts | 122° |
| 2026-05-06 12:24 | 43.11714 | 22.48480 | 37001 ft | 497 kts | 122° |
| 2026-05-06 12:25 | 43.08029 | 22.56479 | 37006 ft | 497 kts | 122° |
| 2026-05-06 12:25 | 43.04340 | 22.64462 | 37008 ft | 496 kts | 122° |
| 2026-05-06 12:26 | 43.00647 | 22.72432 | 37008 ft | 497 kts | 122° |
| 2026-05-06 12:26 | 42.96670 | 22.80137 | 37010 ft | 496 kts | 133° |
| 2026-05-06 12:27 | 42.91808 | 22.86823 | 37011 ft | 496 kts | 137° |
| 2026-05-06 12:27 | 42.87626 | 22.92184 | 37012 ft | 497 kts | 138° |
| 2026-05-06 12:28 | 42.82556 | 22.98583 | 37003 ft | 498 kts | 138° |
| 2026-05-06 12:28 | 42.77484 | 23.05001 | 37025 ft | 498 kts | 137° |
| 2026-05-06 12:29 | 42.72422 | 23.11422 | 37032 ft | 498 kts | 137° |
| 2026-05-06 12:29 | 42.67358 | 23.17843 | 37052 ft | 498 kts | 137° |
| 2026-05-06 12:30 | 42.62284 | 23.24263 | 37043 ft | 499 kts | 137° |
| 2026-05-06 12:30 | 42.57198 | 23.30682 | 37049 ft | 500 kts | 137° |
| 2026-05-06 12:31 | 42.52102 | 23.37098 | 37046 ft | 500 kts | 137° |
| 2026-05-06 12:31 | 42.47006 | 23.43497 | 37050 ft | 499 kts | 137° |
| 2026-05-06 12:32 | 42.41900 | 23.49894 | 37044 ft | 501 kts | 137° |
| 2026-05-06 12:32 | 42.36780 | 23.56293 | 37045 ft | 501 kts | 137° |
| 2026-05-06 12:33 | 42.31657 | 23.62683 | 37044 ft | 501 kts | 137° |
| 2026-05-06 12:33 | 42.26511 | 23.69030 | 37042 ft | 501 kts | 138° |
| 2026-05-06 12:34 | 42.21332 | 23.75327 | 37050 ft | 501 kts | 138° |
| 2026-05-06 12:34 | 42.16148 | 23.81611 | 37051 ft | 502 kts | 138° |
| 2026-05-06 12:35 | 42.10951 | 23.87903 | 37026 ft | 503 kts | 138° |
| 2026-05-06 12:35 | 42.05741 | 23.94204 | 37045 ft | 503 kts | 138° |
| 2026-05-06 12:36 | 42.00526 | 24.00498 | 37050 ft | 504 kts | 138° |
| 2026-05-06 12:36 | 41.95307 | 24.06783 | 37019 ft | 503 kts | 138° |
| 2026-05-06 12:37 | 41.90113 | 24.13021 | 37050 ft | 505 kts | 138° |
| 2026-05-06 12:37 | 41.84867 | 24.19309 | 37040 ft | 506 kts | 138° |
| 2026-05-06 12:38 | 41.79621 | 24.25582 | 37027 ft | 505 kts | 138° |
| 2026-05-06 12:38 | 41.74384 | 24.31833 | 37042 ft | 504 kts | 138° |
| 2026-05-06 12:39 | 41.69152 | 24.38063 | 37041 ft | 503 kts | 138° |
| 2026-05-06 12:39 | 41.63905 | 24.44299 | 37029 ft | 506 kts | 138° |
| 2026-05-06 12:40 | 41.58632 | 24.50543 | 37048 ft | 507 kts | 138° |
| 2026-05-06 12:40 | 41.53354 | 24.56781 | 37038 ft | 507 kts | 138° |
| 2026-05-06 12:41 | 41.48074 | 24.63008 | 37055 ft | 507 kts | 138° |
| 2026-05-06 12:41 | 41.42781 | 24.69240 | 37056 ft | 508 kts | 137° |
| 2026-05-06 12:42 | 41.37645 | 24.75684 | 37038 ft | 507 kts | 135° |
| 2026-05-06 12:42 | 41.32636 | 24.82304 | 37060 ft | 507 kts | 134° |
| 2026-05-06 12:43 | 41.27631 | 24.88911 | 37061 ft | 507 kts | 135° |
| 2026-05-06 12:43 | 41.22593 | 24.95491 | 37048 ft | 508 kts | 135° |
| 2026-05-06 12:44 | 41.17543 | 25.02045 | 37046 ft | 508 kts | 135° |
| 2026-05-06 12:44 | 41.12465 | 25.08614 | 37051 ft | 511 kts | 135° |
| 2026-05-06 12:45 | 41.07371 | 25.15192 | 37052 ft | 511 kts | 135° |
| 2026-05-06 12:46 | 40.99723 | 25.25043 | 37053 ft | 511 kts | 135° |
| 2026-05-06 12:46 | 40.94617 | 25.31600 | 37071 ft | 511 kts | 135° |
| 2026-05-06 12:47 | 40.89507 | 25.38148 | 37060 ft | 513 kts | 135° |
| 2026-05-06 12:47 | 40.84370 | 25.44715 | 37058 ft | 514 kts | 135° |
| 2026-05-06 12:48 | 40.79263 | 25.51231 | 37065 ft | 514 kts | 135° |
| 2026-05-06 12:48 | 40.74118 | 25.57779 | 37061 ft | 514 kts | 135° |
| 2026-05-06 12:49 | 40.68968 | 25.64318 | 37087 ft | 514 kts | 135° |
| 2026-05-06 12:49 | 40.63810 | 25.70853 | 37063 ft | 515 kts | 135° |
| 2026-05-06 12:50 | 40.58639 | 25.77390 | 37070 ft | 516 kts | 135° |
| 2026-05-06 12:50 | 40.53464 | 25.83917 | 37068 ft | 516 kts | 135° |
| 2026-05-06 12:51 | 40.48757 | 25.90971 | 37076 ft | 512 kts | 123° |
| 2026-05-06 12:51 | 40.44757 | 25.98712 | 37082 ft | 512 kts | 121° |
| 2026-05-06 12:52 | 40.40897 | 26.06555 | 37078 ft | 511 kts | 120° |
| 2026-05-06 12:52 | 40.37046 | 26.14391 | 37080 ft | 511 kts | 121° |
| 2026-05-06 12:53 | 40.33169 | 26.22211 | 37073 ft | 512 kts | 121° |
| 2026-05-06 12:53 | 40.29272 | 26.30023 | 37074 ft | 512 kts | 121° |
| 2026-05-06 12:54 | 40.25371 | 26.37815 | 37075 ft | 512 kts | 121° |
| 2026-05-06 12:54 | 40.21465 | 26.45601 | 37075 ft | 512 kts | 121° |
| 2026-05-06 12:55 | 40.17553 | 26.53379 | 37074 ft | 512 kts | 121° |
| 2026-05-06 12:55 | 40.13637 | 26.61146 | 37074 ft | 511 kts | 121° |
| 2026-05-06 12:56 | 40.09723 | 26.68890 | 37070 ft | 510 kts | 121° |
| 2026-05-06 12:56 | 40.05806 | 26.76620 | 37062 ft | 511 kts | 121° |
| 2026-05-06 12:57 | 40.01885 | 26.84340 | 37061 ft | 511 kts | 122° |
| 2026-05-06 12:57 | 39.97955 | 26.92059 | 37058 ft | 510 kts | 122° |
| 2026-05-06 12:58 | 39.94024 | 26.99759 | 37055 ft | 510 kts | 122° |
| 2026-05-06 12:58 | 39.90085 | 27.07456 | 37058 ft | 511 kts | 122° |
| 2026-05-06 12:59 | 39.86138 | 27.15152 | 37057 ft | 511 kts | 122° |
| 2026-05-06 12:59 | 39.82186 | 27.22839 | 37058 ft | 511 kts | 122° |
| 2026-05-06 13:00 | 39.78233 | 27.30507 | 37061 ft | 510 kts | 122° |
| 2026-05-06 13:00 | 39.74274 | 27.38171 | 37061 ft | 511 kts | 122° |
| 2026-05-06 13:01 | 39.70336 | 27.45772 | 37059 ft | 510 kts | 122° |
| 2026-05-06 13:01 | 39.66371 | 27.53409 | 37065 ft | 510 kts | 122° |
| 2026-05-06 13:02 | 39.62406 | 27.61026 | 37053 ft | 509 kts | 122° |
| 2026-05-06 13:02 | 39.58437 | 27.68633 | 37051 ft | 509 kts | 123° |
| 2026-05-06 13:03 | 39.54463 | 27.76234 | 37040 ft | 509 kts | 123° |
| 2026-05-06 13:03 | 39.50481 | 27.83831 | 37050 ft | 510 kts | 123° |
| 2026-05-06 13:04 | 39.46486 | 27.91433 | 37051 ft | 510 kts | 123° |
| 2026-05-06 13:04 | 39.42490 | 27.99019 | 37052 ft | 510 kts | 123° |
| 2026-05-06 13:05 | 39.38488 | 28.06600 | 37067 ft | 510 kts | 123° |
| 2026-05-06 13:05 | 39.34482 | 28.14170 | 37067 ft | 510 kts | 123° |
| 2026-05-06 13:06 | 39.30477 | 28.21720 | 37075 ft | 510 kts | 123° |
| 2026-05-06 13:06 | 39.26464 | 28.29267 | 37076 ft | 510 kts | 123° |
| 2026-05-06 13:07 | 39.22447 | 28.36804 | 37074 ft | 510 kts | 123° |
| 2026-05-06 13:07 | 39.18425 | 28.44332 | 37080 ft | 510 kts | 123° |
| 2026-05-06 13:08 | 39.14398 | 28.51852 | 37080 ft | 510 kts | 123° |
| 2026-05-06 13:08 | 39.10367 | 28.59363 | 37077 ft | 510 kts | 123° |
| 2026-05-06 13:09 | 39.06329 | 28.66867 | 37089 ft | 510 kts | 124° |
| 2026-05-06 13:09 | 39.02291 | 28.74357 | 37073 ft | 509 kts | 124° |
| 2026-05-06 13:10 | 38.98251 | 28.81831 | 37074 ft | 509 kts | 124° |
| 2026-05-06 13:10 | 38.94203 | 28.89304 | 37072 ft | 510 kts | 124° |
| 2026-05-06 13:11 | 38.90151 | 28.96765 | 37073 ft | 509 kts | 124° |
| 2026-05-06 13:11 | 38.86093 | 29.04219 | 37075 ft | 509 kts | 124° |
| 2026-05-06 13:12 | 38.82028 | 29.11666 | 37061 ft | 509 kts | 124° |
| 2026-05-06 13:12 | 38.77964 | 29.19100 | 37086 ft | 509 kts | 124° |
| 2026-05-06 13:13 | 38.73891 | 29.26535 | 37101 ft | 510 kts | 124° |
| 2026-05-06 13:13 | 38.70496 | 29.32717 | 37105 ft | 511 kts | 124° |
| 2026-05-06 13:14 | 38.66401 | 29.40158 | 37062 ft | 511 kts | 124° |
| 2026-05-06 13:14 | 38.62302 | 29.47588 | 37080 ft | 511 kts | 124° |
| 2026-05-06 13:15 | 38.58201 | 29.55007 | 37072 ft | 511 kts | 124° |
| 2026-05-06 13:15 | 38.54096 | 29.62413 | 37092 ft | 510 kts | 124° |
| 2026-05-06 13:16 | 38.49995 | 29.69797 | 37090 ft | 510 kts | 124° |
| 2026-05-06 13:16 | 38.45891 | 29.77170 | 37074 ft | 509 kts | 124° |
| 2026-05-06 13:17 | 38.41786 | 29.84528 | 37085 ft | 509 kts | 125° |
| 2026-05-06 13:17 | 38.37679 | 29.91873 | 37076 ft | 508 kts | 125° |